createdAt,value
2022-10-30T00:01:05.926Z,36.08
2022-10-30T00:03:40.479Z,42.35
2022-10-30T00:06:07.668Z,39.20
2022-10-30T00:08:34.896Z,39.60
2022-10-30T00:11:11.971Z,35.78
2022-10-30T00:13:43.126Z,47.08
2022-10-30T00:16:10.331Z,41.38
2022-10-30T00:18:38.517Z,35.03
2022-10-30T00:21:15.964Z,38.42
2022-10-30T00:23:52.079Z,47.75
2022-10-30T00:26:20.981Z,50.75
2022-10-30T00:28:52.114Z,46.05
2022-10-30T00:31:19.344Z,36.33
2022-10-30T00:33:52.698Z,48.28
2022-10-30T00:36:20.461Z,51.70
2022-10-30T00:38:47.806Z,37.72
2022-10-30T00:41:16.380Z,38.70
2022-10-30T00:43:43.928Z,39.70
2022-10-30T00:46:37.812Z,36.97
2022-10-30T00:49:08.437Z,46.35
2022-10-30T00:51:36.839Z,35.45
2022-10-30T00:54:05.698Z,34.92
2022-10-30T00:56:32.818Z,37.88
2022-10-30T00:59:07.849Z,45.45
2022-10-30T01:01:37.764Z,42.17
2022-10-30T01:04:06.275Z,40.88
2022-10-30T01:06:36.342Z,40.08
2022-10-30T01:09:04.202Z,43.40
2022-10-30T01:11:31.592Z,38.65
2022-10-30T01:14:02.235Z,39.75
2022-10-30T01:16:48.354Z,43.78
2022-10-30T01:19:39.137Z,39.80
2022-10-30T01:22:44.546Z,49.10
2022-10-30T01:25:20.922Z,36.55
2022-10-30T01:28:02.630Z,45.22
2022-10-30T01:30:42.515Z,42.53
2022-10-30T01:33:15.343Z,38.63
2022-10-30T01:36:00.130Z,42.03
2022-10-30T01:38:32.473Z,32.03
2022-10-30T01:41:00.379Z,36.95
2022-10-30T01:43:27.512Z,36.83
2022-10-30T01:45:59.238Z,41.90
2022-10-30T01:48:51.131Z,35.08
2022-10-30T01:51:39.683Z,36.53
2022-10-30T01:54:33.678Z,32.80
2022-10-30T01:57:19.668Z,31.42
2022-10-30T01:59:55.356Z,33.10
2022-10-30T02:02:23.317Z,32.55
2022-10-30T02:04:51.197Z,35.22
2022-10-30T02:07:18.352Z,37.45
2022-10-30T02:09:51.474Z,40.22
2022-10-30T02:12:19.107Z,39.25
2022-10-30T02:14:49.390Z,38.60
2022-10-30T02:17:16.972Z,38.60
2022-10-30T02:19:43.952Z,40.53
2022-10-30T02:22:11.964Z,42.10
2022-10-30T02:24:39.503Z,45.92
2022-10-30T02:27:07.216Z,39.95
2022-10-30T02:29:34.383Z,36.53
2022-10-30T02:32:01.824Z,34.40
2022-10-30T02:34:29.083Z,36.22
2022-10-30T02:36:57.840Z,34.20
2022-10-30T02:39:24.755Z,39.53
2022-10-30T02:41:52.249Z,32.17
2022-10-30T02:44:19.391Z,35.65
2022-10-30T02:46:47.741Z,43.42
2022-10-30T02:49:14.612Z,36.50
2022-10-30T02:51:41.779Z,36.08
2022-10-30T02:54:08.863Z,35.55
2022-10-30T02:56:35.823Z,42.53
2022-10-30T02:59:03.177Z,43.45
2022-10-30T03:01:30.374Z,41.72
2022-10-30T03:03:59.204Z,44.10
2022-10-30T03:06:26.283Z,39.25
2022-10-30T03:08:53.213Z,36.47
2022-10-30T03:11:20.664Z,42.00
2022-10-30T03:13:48.565Z,37.42
2022-10-30T03:16:21.145Z,40.33
2022-10-30T03:18:50.410Z,38.92
2022-10-30T03:21:20.463Z,37.60
2022-10-30T03:23:47.719Z,36.63
2022-10-30T03:26:14.579Z,38.40
2022-10-30T03:29:04.863Z,42.17
2022-10-30T03:31:32.913Z,37.25
2022-10-30T03:34:23.085Z,45.20
2022-10-30T03:36:49.962Z,39.47
2022-10-30T03:39:16.915Z,37.40
2022-10-30T03:41:46.045Z,34.33
2022-10-30T03:44:13.108Z,40.90
2022-10-30T03:46:40.019Z,41.67
2022-10-30T03:49:28.597Z,43.80
2022-10-30T03:51:56.850Z,44.03
2022-10-30T03:54:25.848Z,37.13
2022-10-30T03:56:53.042Z,34.80
2022-10-30T03:59:21.154Z,41.83
2022-10-30T04:02:14.409Z,43.45
2022-10-30T04:04:41.953Z,36.97
2022-10-30T04:07:08.893Z,38.03
2022-10-30T04:09:36.315Z,38.13
2022-10-30T04:12:03.174Z,38.53
2022-10-30T04:14:30.298Z,33.97
2022-10-30T04:16:57.261Z,37.15
2022-10-30T04:19:24.254Z,38.33
2022-10-30T04:21:51.403Z,40.20
2022-10-30T04:24:18.987Z,36.83
2022-10-30T04:26:49.608Z,36.92
2022-10-30T04:29:16.695Z,36.92
2022-10-30T04:31:44.566Z,38.40
2022-10-30T04:34:12.416Z,36.45
2022-10-30T04:36:39.541Z,33.53
2022-10-30T04:39:06.461Z,33.70
2022-10-30T04:41:34.613Z,36.25
2022-10-30T04:44:07.599Z,34.72
2022-10-30T04:46:34.858Z,34.10
2022-10-30T04:49:10.125Z,33.65
2022-10-30T04:51:37.043Z,36.22
2022-10-30T04:54:05.819Z,34.88
2022-10-30T04:56:33.132Z,36.60
2022-10-30T04:59:00.450Z,35.60
2022-10-30T05:01:27.596Z,35.83
2022-10-30T05:03:55.413Z,38.85
2022-10-30T05:06:25.534Z,31.00
2022-10-30T05:08:52.685Z,40.38
2022-10-30T05:11:29.521Z,39.90
2022-10-30T05:13:57.054Z,37.85
2022-10-30T05:16:24.048Z,34.95
2022-10-30T05:18:52.494Z,32.47
2022-10-30T05:21:19.678Z,33.42
2022-10-30T05:23:47.310Z,29.80
2022-10-30T05:26:14.480Z,28.95
2022-10-30T05:28:42.713Z,34.60
2022-10-30T05:31:09.940Z,35.60
2022-10-30T05:33:58.643Z,41.63
2022-10-30T05:36:26.596Z,35.08
2022-10-30T05:38:53.680Z,41.92
2022-10-30T05:41:39.010Z,40.55
2022-10-30T05:44:06.073Z,42.05
2022-10-30T05:46:34.236Z,39.60
2022-10-30T05:49:19.540Z,35.75
2022-10-30T05:51:46.852Z,37.67
2022-10-30T05:54:13.749Z,39.60
2022-10-30T05:56:54.434Z,35.42
2022-10-30T05:59:21.539Z,41.30
2022-10-30T06:01:48.697Z,31.38
2022-10-30T06:04:15.908Z,39.00
2022-10-30T06:06:43.353Z,32.60
2022-10-30T06:09:10.435Z,40.85
2022-10-30T06:11:46.347Z,34.42
2022-10-30T06:14:14.424Z,37.33
2022-10-30T06:16:47.316Z,38.28
2022-10-30T06:19:33.028Z,39.45
2022-10-30T06:22:21.122Z,34.08
2022-10-30T06:24:54.199Z,36.17
2022-10-30T06:27:39.051Z,33.85
2022-10-30T06:30:06.640Z,31.88
2022-10-30T06:32:33.541Z,34.10
2022-10-30T06:35:00.480Z,38.25
2022-10-30T06:37:28.228Z,36.60
2022-10-30T06:39:55.248Z,30.38
2022-10-30T06:42:46.390Z,35.45
2022-10-30T06:45:51.824Z,33.83
2022-10-30T06:48:19.133Z,36.65
2022-10-30T06:51:00.005Z,34.15
2022-10-30T06:53:29.744Z,36.42
2022-10-30T06:56:09.831Z,37.88
2022-10-30T06:58:52.361Z,40.65
2022-10-30T07:01:37.663Z,34.83
2022-10-30T07:04:24.141Z,35.45
2022-10-30T07:06:51.078Z,30.55
2022-10-30T07:09:20.574Z,35.75
2022-10-30T07:11:48.707Z,33.83
2022-10-30T07:14:19.951Z,38.22
2022-10-30T07:16:55.925Z,33.38
2022-10-30T07:19:23.953Z,38.80
2022-10-30T07:21:52.331Z,37.92
2022-10-30T07:24:19.756Z,38.05
2022-10-30T07:27:05.013Z,35.25
2022-10-30T07:29:37.063Z,35.72
2022-10-30T07:32:24.241Z,35.95
2022-10-30T07:35:29.974Z,35.58
2022-10-30T07:38:15.298Z,35.97
2022-10-30T07:40:53.740Z,34.53
2022-10-30T07:43:52.652Z,34.45
2022-10-30T07:46:37.183Z,30.00
2022-10-30T07:49:30.682Z,27.92
2022-10-30T07:52:02.142Z,30.00
2022-10-30T07:54:29.895Z,29.48
2022-10-30T07:57:03.326Z,28.00
2022-10-30T08:02:40.359Z,33.47
2022-10-30T08:05:33.518Z,26.85
2022-10-30T08:08:07.000Z,25.15
2022-10-30T08:10:34.733Z,28.27
2022-10-30T08:13:02.866Z,32.08
2022-10-30T08:15:30.009Z,28.45
2022-10-30T08:17:57.547Z,21.90
2022-10-30T08:20:26.206Z,20.42
2022-10-30T08:22:55.798Z,17.90
2022-10-30T08:25:30.393Z,21.42
2022-10-30T08:27:59.810Z,23.50
2022-10-30T08:30:34.656Z,24.15
2022-10-30T08:33:07.347Z,17.85
2022-10-30T08:35:50.915Z,21.48
2022-10-30T08:38:18.632Z,21.20
2022-10-30T08:40:51.168Z,17.70
2022-10-30T08:43:19.255Z,20.15
2022-10-30T08:45:46.603Z,18.23
2022-10-30T08:48:16.726Z,15.90
2022-10-30T08:50:45.212Z,16.90
2022-10-30T08:53:16.142Z,12.15
2022-10-30T08:55:45.418Z,12.55
2022-10-30T08:58:31.100Z,18.92
2022-10-30T09:01:01.365Z,16.17
2022-10-30T09:03:55.516Z,17.88
2022-10-30T09:06:48.164Z,14.70
2022-10-30T09:09:34.054Z,11.98
2022-10-30T09:12:03.039Z,15.32
2022-10-30T09:14:35.728Z,11.25
2022-10-30T09:17:02.739Z,11.48
2022-10-30T09:19:30.904Z,12.75
2022-10-30T09:21:59.071Z,11.23
2022-10-30T09:24:26.448Z,11.60
2022-10-30T09:26:55.711Z,11.25
2022-10-30T09:29:25.028Z,12.43
2022-10-30T09:32:01.754Z,10.85
2022-10-30T09:34:31.157Z,12.75
2022-10-30T09:37:13.593Z,12.15
2022-10-30T09:39:44.267Z,10.07
2022-10-30T09:42:20.777Z,11.70
2022-10-30T09:45:23.111Z,11.82
2022-10-30T09:47:56.461Z,10.38
2022-10-30T09:50:54.805Z,9.52
2022-10-30T09:53:38.788Z,9.93
2022-10-30T09:56:16.124Z,13.32
2022-10-30T09:59:18.078Z,10.13
2022-10-30T10:01:52.480Z,9.48
2022-10-30T10:04:27.520Z,11.52
2022-10-30T10:07:07.935Z,8.50
2022-10-30T10:09:51.679Z,9.45
2022-10-30T10:12:33.974Z,7.45
2022-10-30T10:15:05.645Z,9.95
2022-10-30T10:17:35.273Z,14.20
2022-10-30T10:20:05.785Z,11.40
2022-10-30T10:22:39.379Z,12.80
2022-10-30T10:25:11.407Z,6.28
2022-10-30T10:27:59.993Z,9.55
2022-10-30T10:30:33.633Z,9.48
2022-10-30T10:33:26.731Z,10.18
2022-10-30T10:36:05.849Z,10.82
2022-10-30T10:38:41.757Z,7.90
2022-10-30T10:41:08.807Z,8.05
2022-10-30T10:44:14.273Z,12.52
2022-10-30T10:47:01.733Z,9.55
2022-10-30T10:49:53.811Z,7.88
2022-10-30T10:52:24.540Z,8.82
2022-10-30T10:55:04.730Z,8.88
2022-10-30T10:57:37.600Z,6.95
2022-10-30T11:00:25.623Z,5.80
2022-10-30T11:03:00.839Z,7.28
2022-10-30T11:05:32.774Z,7.55
2022-10-30T11:08:07.212Z,5.55
2022-10-30T11:10:34.197Z,9.25
2022-10-30T11:13:01.726Z,12.88
2022-10-30T11:15:37.573Z,8.60
2022-10-30T11:18:09.651Z,8.55
2022-10-30T11:21:01.359Z,6.38
2022-10-30T11:23:39.028Z,9.65
2022-10-30T11:26:27.132Z,10.70
2022-10-30T11:29:29.038Z,6.93
2022-10-30T11:32:03.640Z,9.02
2022-10-30T11:34:36.072Z,8.50
2022-10-30T11:37:04.204Z,10.15
2022-10-30T11:39:35.349Z,7.18
2022-10-30T11:42:06.441Z,11.05
2022-10-30T11:44:33.498Z,7.05
2022-10-30T11:47:00.829Z,5.50
2022-10-30T11:49:55.318Z,5.65
2022-10-30T11:52:23.845Z,5.97
2022-10-30T11:54:53.658Z,6.32
2022-10-30T11:57:24.265Z,6.28
2022-10-30T11:59:54.487Z,7.60
2022-10-30T12:02:23.086Z,11.05
2022-10-30T12:04:51.001Z,7.25
2022-10-30T12:07:24.277Z,5.30
2022-10-30T12:09:51.202Z,6.30
2022-10-30T12:12:28.742Z,7.10
2022-10-30T12:14:55.760Z,6.80
2022-10-30T12:17:22.999Z,5.82
2022-10-30T12:19:51.887Z,10.20
2022-10-30T12:22:33.037Z,6.05
2022-10-30T12:25:03.185Z,6.55
2022-10-30T12:27:32.098Z,5.60
2022-10-30T12:30:09.325Z,8.95
2022-10-30T12:32:49.896Z,8.88
2022-10-30T12:35:43.076Z,5.63
2022-10-30T12:38:17.673Z,4.63
2022-10-30T12:40:56.288Z,17.58
2022-10-30T12:43:27.160Z,8.73
2022-10-30T12:46:23.787Z,5.75
2022-10-30T12:49:01.725Z,6.32
2022-10-30T12:51:51.712Z,5.63
2022-10-30T12:54:51.100Z,6.65
2022-10-30T12:57:22.814Z,6.25
2022-10-30T13:00:15.706Z,6.47
2022-10-30T13:02:43.081Z,5.47
2022-10-30T13:05:26.934Z,8.90
2022-10-30T13:08:05.345Z,7.03
2022-10-30T13:10:46.322Z,4.93
2022-10-30T13:13:19.179Z,4.82
2022-10-30T13:15:52.039Z,7.50
2022-10-30T13:18:21.548Z,7.10
2022-10-30T13:21:20.851Z,5.63
2022-10-30T13:23:59.234Z,6.20
2022-10-30T13:26:49.422Z,4.97
2022-10-30T13:29:19.264Z,8.88
2022-10-30T13:32:04.181Z,8.70
2022-10-30T13:34:36.029Z,6.10
2022-10-30T13:37:11.804Z,5.25
2022-10-30T13:39:43.762Z,6.72
2022-10-30T13:42:38.937Z,4.63
2022-10-30T13:45:57.045Z,5.57
2022-10-30T13:49:21.385Z,9.15
2022-10-30T13:51:58.088Z,6.03
2022-10-30T13:54:34.925Z,6.25
2022-10-30T13:57:14.628Z,5.68
2022-10-30T14:00:15.529Z,5.25
2022-10-30T14:02:51.072Z,4.55
2022-10-30T14:05:36.717Z,6.18
2022-10-30T14:08:25.731Z,5.28
2022-10-30T14:10:57.583Z,8.27
2022-10-30T14:13:56.266Z,8.10
2022-10-30T14:16:46.129Z,6.15
2022-10-30T14:19:14.924Z,7.72
2022-10-30T14:21:52.913Z,6.20
2022-10-30T14:27:05.688Z,2.33
2022-10-30T14:29:35.931Z,3.65
2022-10-30T14:32:23.028Z,3.70
2022-10-30T14:34:50.213Z,5.20
2022-10-30T14:37:25.256Z,4.82
2022-10-30T14:39:53.185Z,5.00
2022-10-30T14:42:35.175Z,5.60
2022-10-30T14:45:11.244Z,6.10
2022-10-30T14:47:56.836Z,5.93
2022-10-30T14:50:26.941Z,9.18
2022-10-30T14:53:02.959Z,8.93
2022-10-30T14:55:57.975Z,7.75
2022-10-30T14:58:31.757Z,9.18
2022-10-30T15:01:23.653Z,10.90
2022-10-30T15:04:17.475Z,7.10
2022-10-30T15:06:50.783Z,7.00
2022-10-30T15:09:36.023Z,8.32
2022-10-30T15:12:15.213Z,5.72
2022-10-30T15:14:59.973Z,5.88
2022-10-30T15:17:30.889Z,7.65
2022-10-30T15:20:00.072Z,9.25
2022-10-30T15:22:29.009Z,7.32
2022-10-30T15:24:56.180Z,6.38
2022-10-30T15:27:24.142Z,5.78
2022-10-30T15:29:55.108Z,7.30
2022-10-30T15:32:24.462Z,7.78
2022-10-30T15:35:03.269Z,8.38
2022-10-30T15:37:31.455Z,8.52
2022-10-30T15:40:11.103Z,9.70
2022-10-30T15:42:39.155Z,9.60
2022-10-30T15:45:06.961Z,29.83
2022-10-30T15:47:34.080Z,26.23
2022-10-30T15:50:00.985Z,10.48
2022-10-30T15:52:29.078Z,17.60
2022-10-30T15:55:12.150Z,14.95
2022-10-30T15:58:02.389Z,17.73
2022-10-30T16:00:33.485Z,13.13
2022-10-30T16:03:07.910Z,12.32
2022-10-30T16:05:35.489Z,13.45
2022-10-30T16:08:04.422Z,15.80
2022-10-30T16:10:34.497Z,13.25
2022-10-30T16:13:03.137Z,10.88
2022-10-30T16:15:40.052Z,13.20
2022-10-30T16:18:15.679Z,13.75
2022-10-30T16:20:45.777Z,9.93
2022-10-30T16:23:13.770Z,12.25
2022-10-30T16:25:46.746Z,21.90
2022-10-30T16:28:34.778Z,14.80
2022-10-30T16:31:05.055Z,11.80
2022-10-30T16:33:33.789Z,15.15
2022-10-30T16:36:02.697Z,19.23
2022-10-30T16:38:34.975Z,25.58
2022-10-30T16:41:01.942Z,33.63
2022-10-30T16:43:30.764Z,26.90
2022-10-30T16:46:16.248Z,20.50
2022-10-30T16:48:48.672Z,12.20
2022-10-30T16:51:17.582Z,16.67
2022-10-30T16:53:48.446Z,11.55
2022-10-30T16:56:27.385Z,13.25
2022-10-30T16:58:57.567Z,18.50
2022-10-30T17:01:28.198Z,16.55
2022-10-30T17:03:56.057Z,14.07
2022-10-30T17:06:37.624Z,25.10
2022-10-30T17:09:09.025Z,13.57
2022-10-30T17:11:44.035Z,16.27
2022-10-30T17:14:21.835Z,9.07
2022-10-30T17:16:56.699Z,13.85
2022-10-30T17:19:32.761Z,19.30
2022-10-30T17:22:02.743Z,24.50
2022-10-30T17:24:35.072Z,15.38
2022-10-30T17:27:05.105Z,15.07
2022-10-30T17:29:38.161Z,12.60
2022-10-30T17:32:07.050Z,11.98
2022-10-30T17:34:37.166Z,11.82
2022-10-30T17:37:04.114Z,17.70
2022-10-30T17:39:31.209Z,12.95
2022-10-30T17:41:58.333Z,11.95
2022-10-30T17:44:25.816Z,10.60
2022-10-30T17:46:54.635Z,13.43
2022-10-30T17:49:29.686Z,8.82
2022-10-30T17:51:56.912Z,10.98
2022-10-30T17:54:24.170Z,10.55
2022-10-30T17:56:51.496Z,10.68
2022-10-30T17:59:18.600Z,14.88
2022-10-30T18:01:45.647Z,12.18
2022-10-30T18:04:19.763Z,25.98
2022-10-30T18:06:49.066Z,17.13
2022-10-30T18:09:16.361Z,16.25
2022-10-30T18:11:43.413Z,20.83
2022-10-30T18:14:12.422Z,17.58
2022-10-30T18:16:39.507Z,13.98
2022-10-30T18:19:10.412Z,13.88
2022-10-30T18:21:37.427Z,11.13
2022-10-30T18:24:12.159Z,11.18
2022-10-30T18:26:40.637Z,14.43
2022-10-30T18:29:09.072Z,12.13
2022-10-30T18:31:36.322Z,11.77
2022-10-30T18:34:03.803Z,11.88
2022-10-30T18:36:31.181Z,12.18
2022-10-30T18:38:58.469Z,13.05
2022-10-30T18:41:29.430Z,11.32
2022-10-30T18:43:56.429Z,13.70
2022-10-30T18:46:24.260Z,15.07
2022-10-30T18:48:51.376Z,13.50
2022-10-30T18:51:23.237Z,12.35
2022-10-30T18:53:52.134Z,11.35
2022-10-30T18:56:37.206Z,15.40
2022-10-30T18:59:04.146Z,15.15
2022-10-30T19:01:34.686Z,14.25
2022-10-30T19:04:03.785Z,15.45
2022-10-30T19:06:32.951Z,16.15
2022-10-30T19:09:00.076Z,22.17
2022-10-30T19:11:30.254Z,15.38
2022-10-30T19:13:58.525Z,20.50
2022-10-30T19:16:26.237Z,20.30
2022-10-30T19:18:53.813Z,22.15
2022-10-30T19:21:23.019Z,25.48
2022-10-30T19:23:50.424Z,22.73
2022-10-30T19:26:17.861Z,17.83
2022-10-30T19:28:45.774Z,18.20
2022-10-30T19:31:18.434Z,21.80
2022-10-30T19:33:47.553Z,24.52
2022-10-30T19:36:35.842Z,19.63
2022-10-30T19:39:14.093Z,17.75
2022-10-30T19:41:41.576Z,17.02
2022-10-30T19:44:09.318Z,18.30
2022-10-30T19:46:36.805Z,19.90
2022-10-30T19:49:16.868Z,19.73
2022-10-30T19:51:44.160Z,17.60
2022-10-30T19:54:11.446Z,20.20
2022-10-30T19:56:38.674Z,36.90
2022-10-30T19:59:13.717Z,21.98
2022-10-30T20:01:41.873Z,26.73
2022-10-30T20:04:10.312Z,24.92
2022-10-30T20:06:37.802Z,35.42
2022-10-30T20:09:05.569Z,89.57
2022-10-30T20:11:32.633Z,59.47
2022-10-30T20:13:59.865Z,32.03
2022-10-30T20:16:27.014Z,60.45
2022-10-30T20:18:54.265Z,69.60
2022-10-30T20:21:21.547Z,49.53
2022-10-30T20:23:48.570Z,69.72
2022-10-30T20:26:23.749Z,43.08
2022-10-30T20:28:50.966Z,37.47
2022-10-30T20:31:17.907Z,36.67
2022-10-30T20:33:45.195Z,34.13
2022-10-30T20:36:13.787Z,34.85
2022-10-30T20:38:40.701Z,31.40
2022-10-30T20:41:19.680Z,32.10
2022-10-30T20:43:46.723Z,34.25
2022-10-30T20:46:13.772Z,27.60
2022-10-30T20:48:40.620Z,28.38
2022-10-30T20:51:07.956Z,33.38
2022-10-30T20:53:34.814Z,34.38
2022-10-30T20:56:01.770Z,25.60
2022-10-30T20:58:29.402Z,26.15
2022-10-30T21:00:58.361Z,25.50
2022-10-30T21:03:26.749Z,23.98
2022-10-30T21:05:59.736Z,28.65
2022-10-30T21:08:28.393Z,25.10
2022-10-30T21:11:05.914Z,39.00
2022-10-30T21:13:36.705Z,49.40
2022-10-30T21:16:06.258Z,50.28
2022-10-30T21:18:33.498Z,101.53
2022-10-30T21:21:05.092Z,63.38
2022-10-30T21:23:32.082Z,45.15
2022-10-30T21:26:03.581Z,60.20
2022-10-30T21:28:30.735Z,34.60
2022-10-30T21:31:04.033Z,24.75
2022-10-30T21:33:32.258Z,27.38
2022-10-30T21:36:13.078Z,31.08
2022-10-30T21:38:44.663Z,25.48
2022-10-30T21:41:13.445Z,24.13
2022-10-30T21:43:40.578Z,28.50
2022-10-30T21:46:09.170Z,24.63
2022-10-30T21:48:36.141Z,28.15
2022-10-30T21:51:06.354Z,30.90
2022-10-30T21:53:33.257Z,31.27
2022-10-30T21:56:04.620Z,35.05
2022-10-30T21:58:32.020Z,29.90
2022-10-30T22:00:58.946Z,34.90
2022-10-30T22:03:25.879Z,29.40
2022-10-30T22:05:53.384Z,29.90
2022-10-30T22:08:20.928Z,24.40
2022-10-30T22:10:47.788Z,25.83
2022-10-30T22:13:14.896Z,24.98
2022-10-30T22:15:41.836Z,25.95
2022-10-30T22:18:08.972Z,27.55
2022-10-30T22:20:36.056Z,23.38
2022-10-30T22:23:02.927Z,22.85
2022-10-30T22:25:29.714Z,24.08
2022-10-30T22:27:56.935Z,26.05
2022-10-30T22:30:23.913Z,27.00
2022-10-30T22:32:51.578Z,28.50
2022-10-30T22:35:18.773Z,25.50
2022-10-30T22:37:45.682Z,29.00
2022-10-30T22:40:12.483Z,23.65
2022-10-30T22:42:39.578Z,23.23
2022-10-30T22:45:07.059Z,24.90
2022-10-30T22:47:33.930Z,31.30
2022-10-30T22:50:01.006Z,22.50
2022-10-30T22:52:27.867Z,26.88
2022-10-30T22:54:54.744Z,25.65
2022-10-30T22:57:21.766Z,22.00
2022-10-30T22:59:48.580Z,25.65
2022-10-30T23:02:15.510Z,29.02
2022-10-30T23:04:42.525Z,26.67
2022-10-30T23:07:09.832Z,29.30
2022-10-30T23:09:36.960Z,25.27
2022-10-30T23:12:04.071Z,24.23
2022-10-30T23:14:31.153Z,27.58
2022-10-30T23:16:57.995Z,29.08
2022-10-30T23:19:26.811Z,25.77
2022-10-30T23:21:58.143Z,27.20
2022-10-30T23:24:26.421Z,29.55
2022-10-30T23:26:53.730Z,22.88
2022-10-30T23:29:20.851Z,24.08
2022-10-30T23:31:47.761Z,25.40
2022-10-30T23:34:16.042Z,24.35
2022-10-30T23:36:43.671Z,23.15
2022-10-30T23:39:14.762Z,25.60
2022-10-30T23:41:41.718Z,27.75
2022-10-30T23:44:12.228Z,27.98
2022-10-30T23:46:39.405Z,31.05
2022-10-30T23:49:06.923Z,25.73
2022-10-30T23:51:33.866Z,26.52
2022-10-30T23:54:00.912Z,31.35
2022-10-30T23:56:29.502Z,26.95
2022-10-30T23:58:56.860Z,32.35
